createdAt,value
2022-12-15T00:00:16.367Z,16.38
2022-12-15T00:05:37.132Z,15.90
2022-12-15T00:10:58.217Z,15.25
2022-12-15T00:16:18.985Z,15.43
2022-12-15T00:21:40.063Z,15.23
2022-12-15T00:27:00.716Z,15.82
2022-12-15T00:32:21.584Z,15.18
2022-12-15T00:37:42.520Z,14.52
2022-12-15T00:42:44.766Z,14.63
2022-12-15T00:47:51.707Z,13.82
2022-12-15T00:53:12.496Z,14.25
2022-12-15T00:58:33.398Z,15.40
2022-12-15T01:03:54.033Z,15.25
2022-12-15T01:09:15.338Z,15.23
2022-12-15T01:14:36.274Z,15.23
2022-12-15T01:19:57.195Z,14.18
2022-12-15T01:24:59.398Z,17.02
2022-12-15T01:30:02.545Z,16.35
2022-12-15T01:35:06.470Z,16.25
2022-12-15T01:40:32.028Z,15.95
2022-12-15T01:45:49.198Z,15.48
2022-12-15T01:51:30.773Z,16.50
2022-12-15T01:56:38.130Z,15.23
2022-12-15T02:01:40.859Z,15.43
2022-12-15T02:06:43.634Z,14.23
2022-12-15T02:12:26.315Z,14.95
2022-12-15T02:17:53.472Z,14.70
2022-12-15T02:23:10.639Z,14.40
2022-12-15T02:28:46.494Z,13.40
2022-12-15T02:34:05.477Z,15.52
2022-12-15T02:39:07.719Z,14.30
2022-12-15T02:44:20.861Z,15.18
2022-12-15T02:50:04.808Z,16.70
2022-12-15T02:55:25.461Z,15.30
2022-12-15T03:00:29.021Z,16.38
2022-12-15T03:05:32.288Z,15.52
2022-12-15T03:10:34.867Z,14.65
2022-12-15T03:15:37.059Z,15.68
2022-12-15T03:20:39.350Z,15.52
2022-12-15T03:25:41.637Z,14.20
2022-12-15T03:30:44.097Z,14.23
2022-12-15T03:35:47.184Z,14.48
2022-12-15T03:40:49.472Z,14.07
2022-12-15T03:45:51.781Z,14.10
2022-12-15T03:50:54.481Z,13.68
2022-12-15T03:55:56.705Z,14.73
2022-12-15T04:00:59.126Z,15.88
2022-12-15T04:06:01.353Z,15.65
2022-12-15T04:11:03.809Z,14.77
2022-12-15T04:16:06.425Z,14.32
2022-12-15T04:21:08.673Z,14.13
2022-12-15T04:26:29.143Z,14.98
2022-12-15T04:37:13.421Z,14.13
2022-12-15T04:42:35.345Z,15.63
2022-12-15T04:47:56.170Z,16.65
2022-12-15T04:53:27.045Z,18.00
2022-12-15T04:58:47.662Z,19.17
2022-12-15T05:04:08.541Z,16.33
2022-12-15T05:09:29.400Z,18.52
2022-12-15T05:14:50.227Z,17.40
2022-12-15T05:20:11.025Z,18.88
2022-12-15T05:25:31.834Z,17.48
2022-12-15T05:30:52.558Z,17.08
2022-12-15T05:35:59.272Z,16.80
2022-12-15T05:41:01.875Z,14.23
2022-12-15T05:46:05.521Z,12.55
2022-12-15T05:51:10.185Z,13.85
2022-12-15T05:56:14.734Z,14.05
2022-12-15T06:01:19.736Z,15.05
2022-12-15T06:06:22.130Z,14.23
2022-12-15T06:11:24.583Z,16.30
2022-12-15T06:16:31.027Z,14.50
2022-12-15T06:21:36.989Z,15.63
2022-12-15T06:26:40.622Z,14.32
2022-12-15T06:31:43.523Z,14.93
2022-12-15T06:36:46.142Z,15.07
2022-12-15T06:41:48.414Z,15.70
2022-12-15T06:46:50.854Z,15.77
2022-12-15T06:51:53.205Z,17.35
2022-12-15T06:56:55.447Z,16.85
2022-12-15T07:01:57.907Z,18.80
2022-12-15T07:07:00.382Z,17.40
2022-12-15T07:12:02.936Z,18.33
2022-12-15T07:17:06.399Z,17.50
2022-12-15T07:22:08.690Z,17.75
2022-12-15T07:27:11.089Z,17.58
2022-12-15T07:32:13.329Z,17.35
2022-12-15T07:37:16.667Z,17.95
2022-12-15T07:42:19.926Z,17.27
2022-12-15T07:47:22.275Z,16.38
2022-12-15T07:52:24.850Z,15.85
2022-12-15T07:57:27.061Z,18.52
2022-12-15T08:02:32.340Z,16.92
2022-12-15T08:07:34.781Z,15.68
2022-12-15T08:12:37.054Z,16.75
2022-12-15T08:17:39.426Z,16.30
2022-12-15T08:22:42.107Z,16.67
2022-12-15T08:27:44.358Z,15.20
2022-12-15T08:32:51.917Z,14.45
2022-12-15T08:37:54.574Z,14.18
2022-12-15T08:42:56.875Z,11.57
2022-12-15T08:48:00.113Z,13.02
2022-12-15T08:53:29.653Z,12.88
2022-12-15T08:58:24.848Z,10.98
2022-12-15T09:03:27.993Z,11.07
2022-12-15T09:08:31.425Z,10.75
2022-12-15T09:13:34.489Z,9.77
2022-12-15T09:18:37.320Z,10.20
2022-12-15T09:23:40.442Z,10.70
2022-12-15T09:28:50.220Z,9.73
2022-12-15T09:33:54.507Z,10.55
2022-12-15T09:38:57.097Z,9.73
2022-12-15T09:44:18.901Z,9.55
2022-12-15T09:49:41.190Z,9.85
2022-12-15T09:54:45.063Z,9.38
2022-12-15T10:00:08.036Z,9.63
2022-12-15T10:11:07.078Z,9.55
2022-12-15T10:16:28.280Z,9.50
2022-12-15T10:21:32.968Z,8.88
2022-12-15T10:26:36.002Z,8.10
2022-12-15T10:37:05.024Z,9.48
2022-12-15T10:48:05.306Z,9.93
2022-12-15T10:53:11.668Z,8.45
2022-12-15T10:58:22.410Z,7.65
2022-12-15T11:03:27.531Z,8.55
2022-12-15T11:14:16.312Z,11.55
2022-12-15T11:25:33.193Z,8.77
2022-12-15T12:10:13.989Z,8.20
2022-12-15T12:15:30.956Z,8.32
2022-12-15T12:20:56.532Z,8.82
2022-12-15T12:26:08.703Z,7.20
2022-12-15T12:31:23.379Z,7.97
2022-12-15T12:36:25.904Z,7.93
2022-12-15T12:41:36.811Z,7.68
2022-12-15T12:46:49.281Z,7.82
2022-12-15T12:51:55.552Z,9.18
2022-12-15T12:56:57.849Z,7.60
2022-12-15T13:02:17.194Z,8.00
2022-12-15T13:07:41.387Z,7.75
2022-12-15T13:12:59.776Z,8.50
2022-12-15T13:18:24.320Z,7.30
2022-12-15T13:23:26.589Z,6.78
2022-12-15T13:28:40.705Z,7.75
2022-12-15T13:33:51.357Z,9.48
2022-12-15T13:38:56.360Z,9.32
2022-12-15T13:44:00.912Z,8.13
2022-12-15T13:49:10.818Z,8.90
2022-12-15T13:54:25.449Z,9.15
2022-12-15T13:59:42.944Z,9.60
2022-12-15T14:04:45.280Z,9.15
2022-12-15T14:09:50.878Z,9.63
2022-12-15T14:14:53.208Z,9.80
2022-12-15T14:19:55.686Z,11.32
2022-12-15T14:25:13.952Z,10.52
2022-12-15T14:30:24.009Z,11.25
2022-12-15T14:35:55.767Z,11.70
2022-12-15T14:41:01.682Z,11.57
2022-12-15T14:46:19.889Z,11.85
2022-12-15T14:51:24.132Z,13.32
2022-12-15T14:56:33.497Z,14.63
2022-12-15T15:01:42.984Z,15.90
2022-12-15T15:03:12.649Z,7.43
2022-12-15T15:12:18.537Z,19.10
2022-12-15T15:17:29.554Z,18.13
2022-12-15T15:22:42.861Z,18.20
2022-12-15T15:27:45.171Z,20.30
2022-12-15T15:32:52.446Z,21.92
2022-12-15T15:38:03.143Z,21.58
2022-12-15T15:43:12.421Z,21.70
2022-12-15T15:48:25.659Z,22.40
2022-12-15T15:53:32.384Z,22.60
2022-12-15T15:58:35.628Z,23.98
2022-12-15T16:03:38.648Z,23.48
2022-12-15T16:08:44.469Z,20.63
2022-12-15T16:13:46.781Z,21.00
2022-12-15T16:18:49.953Z,22.23
2022-12-15T16:23:53.438Z,27.42
2022-12-15T16:28:56.002Z,31.17
2022-12-15T16:33:58.367Z,36.25
2022-12-15T16:39:00.624Z,39.55
2022-12-15T16:44:02.873Z,35.67
2022-12-15T16:49:05.131Z,36.10
2022-12-15T16:54:08.153Z,33.75
2022-12-15T16:59:34.926Z,35.50
2022-12-15T17:04:37.735Z,32.53
2022-12-15T17:09:41.769Z,31.92
2022-12-15T17:14:45.435Z,39.88
2022-12-15T17:20:27.346Z,35.05
2022-12-15T17:26:00.847Z,32.55
2022-12-15T17:30:53.353Z,30.52
2022-12-15T17:36:05.226Z,28.40
2022-12-15T17:41:23.640Z,23.73
2022-12-15T17:46:34.996Z,28.17
2022-12-15T17:51:37.414Z,28.70
2022-12-15T17:56:39.889Z,24.27
2022-12-15T18:01:46.389Z,26.85
2022-12-15T18:06:49.324Z,25.35
2022-12-15T18:11:51.661Z,25.92
2022-12-15T18:16:53.922Z,25.25
2022-12-15T18:21:56.185Z,25.80
2022-12-15T18:26:59.030Z,23.17
2022-12-15T18:32:01.424Z,24.55
2022-12-15T18:37:14.235Z,24.67
2022-12-15T18:42:19.286Z,22.65
2022-12-15T18:47:23.820Z,24.70
2022-12-15T18:52:31.452Z,27.60
2022-12-15T18:57:39.850Z,26.40
2022-12-15T19:02:43.157Z,25.75
2022-12-15T19:07:45.590Z,25.70
2022-12-15T19:12:47.887Z,30.08
2022-12-15T19:18:08.673Z,33.60
2022-12-15T19:23:13.432Z,31.10
2022-12-15T19:28:22.357Z,38.50
2022-12-15T19:33:24.784Z,38.60
2022-12-15T19:38:30.696Z,42.97
2022-12-15T19:43:33.283Z,43.35
2022-12-15T19:48:35.650Z,44.72
2022-12-15T19:53:38.272Z,52.25
2022-12-15T19:58:40.568Z,49.33
2022-12-15T20:03:44.353Z,42.58
2022-12-15T20:08:48.862Z,41.13
2022-12-15T20:13:52.384Z,37.63
2022-12-15T20:18:56.458Z,41.35
2022-12-15T20:24:12.875Z,38.85
2022-12-15T20:29:30.453Z,42.58
2022-12-15T20:34:32.820Z,40.35
2022-12-15T20:39:35.118Z,64.22
2022-12-15T20:44:37.369Z,42.70
2022-12-15T20:49:39.737Z,46.03
2022-12-15T20:54:43.391Z,36.67
2022-12-15T20:59:46.426Z,35.15
2022-12-15T21:04:49.375Z,36.47
2022-12-15T21:09:52.101Z,42.67
2022-12-15T21:14:54.949Z,34.42
2022-12-15T21:19:57.133Z,30.05
2022-12-15T21:25:00.844Z,30.02
2022-12-15T21:30:07.174Z,29.48
2022-12-15T21:35:15.302Z,35.15
2022-12-15T21:40:22.383Z,31.08
2022-12-15T21:45:26.736Z,32.20
2022-12-15T21:50:29.319Z,32.63
2022-12-15T21:55:32.418Z,35.47
2022-12-15T22:00:34.751Z,37.97
2022-12-15T22:05:37.240Z,38.97
2022-12-15T22:10:39.921Z,42.85
2022-12-15T22:15:42.855Z,37.10
2022-12-15T22:20:46.149Z,38.72
2022-12-15T22:25:53.076Z,37.47
2022-12-15T22:30:57.429Z,32.45
2022-12-15T22:35:59.946Z,42.45
2022-12-15T22:41:02.567Z,39.10
2022-12-15T22:46:07.569Z,37.42
2022-12-15T22:51:14.847Z,35.13
2022-12-15T22:56:32.742Z,35.90
2022-12-15T23:01:35.756Z,37.45
2022-12-15T23:06:38.072Z,35.60
2022-12-15T23:11:41.840Z,36.83
2022-12-15T23:16:46.299Z,37.60
2022-12-15T23:21:48.595Z,36.13
2022-12-15T23:26:50.883Z,37.72
2022-12-15T23:31:54.056Z,37.22
2022-12-15T23:36:56.372Z,45.22
2022-12-15T23:41:58.653Z,34.25
2022-12-15T23:47:01.347Z,30.77
2022-12-15T23:52:03.653Z,34.00
2022-12-15T23:57:05.841Z,36.10
